createdAt,value
2023-01-25T00:01:40.786Z,49.60
2023-01-25T00:04:07.169Z,47.30
2023-01-25T00:06:33.852Z,49.30
2023-01-25T00:09:00.272Z,49.35
2023-01-25T00:11:26.630Z,54.58
2023-01-25T00:13:53.668Z,48.03
2023-01-25T00:16:20.098Z,51.08
2023-01-25T00:18:46.503Z,52.35
2023-01-25T00:21:12.967Z,53.20
2023-01-25T00:23:39.365Z,47.40
2023-01-25T00:26:05.939Z,51.58
2023-01-25T00:28:32.540Z,53.67
2023-01-25T00:31:00.083Z,56.13
2023-01-25T00:33:35.151Z,50.08
2023-01-25T00:38:29.857Z,51.45
2023-01-25T00:40:57.475Z,48.70
2023-01-25T00:43:23.814Z,53.38
2023-01-25T00:45:50.271Z,53.53
2023-01-25T00:48:16.992Z,52.55
2023-01-25T00:50:43.358Z,48.20
2023-01-25T00:53:09.790Z,50.22
2023-01-25T00:55:36.290Z,55.92
2023-01-25T00:58:02.626Z,55.42
2023-01-25T01:00:29.176Z,55.85
2023-01-25T01:02:55.611Z,51.55
2023-01-25T01:05:21.965Z,52.63
2023-01-25T01:07:49.769Z,45.58
2023-01-25T01:10:16.292Z,50.25
2023-01-25T01:12:42.961Z,55.80
2023-01-25T01:15:09.910Z,51.55
2023-01-25T01:17:36.491Z,54.58
2023-01-25T01:20:02.999Z,51.40
2023-01-25T01:22:29.345Z,55.35
2023-01-25T01:24:55.698Z,48.60
2023-01-25T01:27:22.062Z,55.00
2023-01-25T01:29:48.393Z,55.65
2023-01-25T01:32:14.812Z,55.35
2023-01-25T01:34:42.048Z,51.30
2023-01-25T01:37:08.449Z,56.35
2023-01-25T01:39:34.824Z,49.50
2023-01-25T01:42:01.235Z,57.50
2023-01-25T01:44:42.870Z,55.83
2023-01-25T01:47:11.393Z,54.03
2023-01-25T01:49:37.781Z,51.65
2023-01-25T01:52:15.983Z,50.53
2023-01-25T01:54:46.935Z,51.25
2023-01-25T01:57:15.206Z,51.33
2023-01-25T01:59:47.667Z,55.55
2023-01-25T02:02:14.967Z,55.85
2023-01-25T02:04:43.511Z,51.13
2023-01-25T02:07:15.094Z,54.38
2023-01-25T02:09:41.947Z,55.67
2023-01-25T02:12:09.499Z,57.28
2023-01-25T02:14:37.974Z,52.25
2023-01-25T02:17:04.590Z,53.30
2023-01-25T02:19:37.257Z,57.58
2023-01-25T02:22:10.314Z,56.28
2023-01-25T02:24:37.916Z,51.40
2023-01-25T02:27:04.426Z,57.72
2023-01-25T02:29:31.198Z,46.50
2023-01-25T02:32:03.038Z,61.20
2023-01-25T02:34:29.556Z,58.03
2023-01-25T02:36:56.171Z,54.80
2023-01-25T02:39:25.741Z,51.55
2023-01-25T02:41:52.455Z,53.17
2023-01-25T02:44:21.323Z,58.90
2023-01-25T02:46:50.593Z,59.42
2023-01-25T02:49:17.632Z,59.38
2023-01-25T02:51:49.014Z,55.55
2023-01-25T02:54:16.375Z,52.13
2023-01-25T02:56:43.951Z,50.25
2023-01-25T02:59:10.716Z,55.28
2023-01-25T03:01:38.589Z,55.67
2023-01-25T03:04:05.645Z,55.85
2023-01-25T03:06:32.917Z,53.70
2023-01-25T03:08:59.291Z,48.88
2023-01-25T03:11:25.719Z,63.97
2023-01-25T03:13:52.301Z,53.97
2023-01-25T03:16:19.117Z,63.25
2023-01-25T03:18:45.725Z,55.85
2023-01-25T03:21:13.461Z,59.35
2023-01-25T03:23:40.712Z,57.10
2023-01-25T03:26:15.125Z,56.53
2023-01-25T03:28:42.099Z,53.60
2023-01-25T03:31:10.094Z,57.10
2023-01-25T03:33:36.682Z,54.88
2023-01-25T03:36:03.739Z,58.13
2023-01-25T03:38:30.667Z,51.17
2023-01-25T03:40:57.471Z,56.55
2023-01-25T03:43:24.295Z,52.58
2023-01-25T03:45:54.582Z,54.63
2023-01-25T03:48:21.427Z,64.38
2023-01-25T03:50:55.245Z,60.90
2023-01-25T03:53:30.462Z,60.58
2023-01-25T03:56:01.083Z,63.88
2023-01-25T03:58:27.952Z,62.00
2023-01-25T04:00:55.487Z,56.38
2023-01-25T04:03:22.481Z,60.50
2023-01-25T04:05:48.914Z,63.70
2023-01-25T04:08:15.396Z,60.67
2023-01-25T04:10:41.899Z,57.45
2023-01-25T04:13:08.705Z,58.80
2023-01-25T04:15:35.131Z,59.92
2023-01-25T04:18:01.787Z,56.08
2023-01-25T04:20:28.403Z,59.60
2023-01-25T04:22:54.843Z,58.25
2023-01-25T04:25:21.214Z,50.65
2023-01-25T04:27:47.602Z,56.55
2023-01-25T04:30:14.152Z,65.10
2023-01-25T04:32:40.750Z,60.13
2023-01-25T04:35:07.689Z,57.10
2023-01-25T04:37:34.301Z,63.40
2023-01-25T04:40:00.701Z,59.92
2023-01-25T04:42:27.238Z,61.58
2023-01-25T04:44:53.622Z,55.25
2023-01-25T04:47:19.968Z,59.38
2023-01-25T04:49:46.297Z,62.42
2023-01-25T04:52:12.668Z,56.80
2023-01-25T04:54:39.010Z,61.83
2023-01-25T04:57:05.546Z,65.80
2023-01-25T04:59:32.243Z,63.35
2023-01-25T05:01:58.620Z,64.90
2023-01-25T05:04:25.038Z,55.63
2023-01-25T05:06:51.544Z,69.22
2023-01-25T05:09:17.910Z,56.15
2023-01-25T05:11:44.336Z,58.28
2023-01-25T05:14:10.664Z,60.22
2023-01-25T05:16:37.109Z,60.97
2023-01-25T05:19:03.634Z,63.45
2023-01-25T05:21:48.458Z,60.17
2023-01-25T05:24:15.113Z,56.05
2023-01-25T05:27:00.240Z,60.05
2023-01-25T05:29:39.970Z,64.13
2023-01-25T05:32:17.140Z,64.13
2023-01-25T05:34:44.645Z,67.10
2023-01-25T05:37:12.288Z,64.30
2023-01-25T05:39:38.695Z,64.68
2023-01-25T05:42:10.118Z,62.17
2023-01-25T05:44:36.476Z,61.97
2023-01-25T05:47:02.997Z,68.10
2023-01-25T05:49:29.386Z,65.05
2023-01-25T05:51:55.819Z,70.75
2023-01-25T05:54:22.404Z,60.38
2023-01-25T05:56:49.415Z,64.25
2023-01-25T05:59:15.857Z,69.57
2023-01-25T06:01:42.244Z,64.25
2023-01-25T06:04:10.129Z,70.65
2023-01-25T06:06:36.701Z,62.42
2023-01-25T06:09:03.158Z,65.03
2023-01-25T06:11:29.556Z,61.17
2023-01-25T06:13:55.923Z,66.32
2023-01-25T06:16:22.407Z,64.35
2023-01-25T06:18:48.944Z,70.07
2023-01-25T06:21:15.389Z,67.45
2023-01-25T06:23:43.628Z,60.92
2023-01-25T06:26:13.347Z,65.63
2023-01-25T06:28:39.708Z,66.95
2023-01-25T06:31:06.242Z,72.05
2023-01-25T06:33:33.254Z,65.47
2023-01-25T06:36:11.663Z,65.20
2023-01-25T06:38:38.981Z,63.80
2023-01-25T06:41:06.532Z,61.80
2023-01-25T06:43:33.677Z,63.35
2023-01-25T06:46:00.690Z,78.80
2023-01-25T06:48:27.874Z,63.85
2023-01-25T06:51:02.013Z,67.45
2023-01-25T06:53:29.508Z,65.67
2023-01-25T06:56:00.103Z,65.30
2023-01-25T06:58:27.252Z,61.88
2023-01-25T07:00:53.943Z,67.53
2023-01-25T07:03:20.406Z,74.78
2023-01-25T07:05:46.887Z,70.07
2023-01-25T07:08:13.723Z,63.53
2023-01-25T07:10:40.226Z,67.38
2023-01-25T07:13:06.568Z,65.35
2023-01-25T07:15:32.949Z,70.75
2023-01-25T07:18:08.286Z,72.93
2023-01-25T07:20:42.313Z,67.38
2023-01-25T07:23:08.746Z,66.22
2023-01-25T07:25:35.114Z,66.22
2023-01-25T07:28:01.746Z,75.50
2023-01-25T07:30:28.159Z,69.72
2023-01-25T07:32:55.569Z,65.38
2023-01-25T07:35:21.941Z,67.55
2023-01-25T07:37:48.323Z,76.68
2023-01-25T07:40:15.525Z,68.85
2023-01-25T07:42:42.266Z,69.75
2023-01-25T07:45:09.319Z,70.03
2023-01-25T07:47:37.194Z,74.95
2023-01-25T07:50:04.589Z,74.45
2023-01-25T07:52:31.305Z,79.80
2023-01-25T07:54:57.691Z,67.20
2023-01-25T07:57:24.229Z,64.18
2023-01-25T07:59:50.661Z,68.68
2023-01-25T08:02:17.057Z,67.13
2023-01-25T08:04:44.841Z,67.35
2023-01-25T08:07:11.843Z,62.72
2023-01-25T08:09:38.217Z,69.72
2023-01-25T08:12:06.355Z,63.38
2023-01-25T08:14:34.234Z,72.18
2023-01-25T08:17:01.948Z,72.47
2023-01-25T08:19:28.323Z,69.55
2023-01-25T08:21:54.762Z,70.70
2023-01-25T08:24:21.509Z,67.03
2023-01-25T08:26:48.414Z,71.53
2023-01-25T08:29:14.983Z,68.55
2023-01-25T08:31:42.109Z,62.65
2023-01-25T08:34:09.658Z,66.15
2023-01-25T08:36:36.185Z,71.40
2023-01-25T08:39:07.443Z,71.55
2023-01-25T08:41:34.856Z,68.25
2023-01-25T08:44:01.865Z,68.63
2023-01-25T08:46:31.495Z,70.75
2023-01-25T08:48:58.949Z,71.60
2023-01-25T08:51:26.037Z,69.22
2023-01-25T08:53:52.612Z,72.13
2023-01-25T08:56:19.304Z,67.82
2023-01-25T08:58:46.488Z,71.05
2023-01-25T09:01:14.711Z,69.75
2023-01-25T09:03:42.274Z,69.63
2023-01-25T09:06:09.233Z,70.65
2023-01-25T09:08:35.904Z,72.35
2023-01-25T09:11:03.067Z,67.13
2023-01-25T09:13:29.704Z,72.82
2023-01-25T09:16:00.672Z,72.75
2023-01-25T09:18:27.985Z,77.60
2023-01-25T09:20:54.813Z,66.35
2023-01-25T09:23:23.948Z,77.38
2023-01-25T09:26:00.352Z,62.33
2023-01-25T09:28:30.069Z,65.63
2023-01-25T09:31:18.874Z,64.32
2023-01-25T09:33:43.811Z,62.25
2023-01-25T09:36:10.273Z,61.97
2023-01-25T09:38:36.735Z,60.65
2023-01-25T09:41:22.176Z,56.35
2023-01-25T09:46:19.167Z,58.10
2023-01-25T09:49:07.373Z,65.30
2023-01-25T09:51:50.425Z,63.05
2023-01-25T09:54:18.623Z,57.78
2023-01-25T09:56:47.703Z,69.60
2023-01-25T09:59:16.592Z,64.35
2023-01-25T10:01:54.930Z,56.22
2023-01-25T10:04:22.782Z,57.55
2023-01-25T10:07:00.101Z,55.65
2023-01-25T10:09:40.941Z,60.70
2023-01-25T10:12:16.595Z,67.55
2023-01-25T10:14:43.028Z,61.35
2023-01-25T10:17:41.928Z,62.45
2023-01-25T10:20:26.213Z,59.63
2023-01-25T10:23:18.725Z,70.43
2023-01-25T10:26:05.338Z,55.88
2023-01-25T10:28:34.778Z,63.97
2023-01-25T10:31:03.440Z,71.88
2023-01-25T10:33:31.355Z,59.17
2023-01-25T10:36:00.085Z,63.28
2023-01-25T10:38:32.468Z,75.80
2023-01-25T10:41:02.260Z,73.57
2023-01-25T10:43:28.722Z,76.70
2023-01-25T10:45:55.158Z,74.95
2023-01-25T10:48:29.091Z,90.70
2023-01-25T10:50:57.492Z,70.38
2023-01-25T10:53:34.267Z,79.00
2023-01-25T10:56:17.251Z,64.78
2023-01-25T10:58:46.230Z,63.40
2023-01-25T11:01:14.370Z,73.78
2023-01-25T11:03:44.539Z,81.10
2023-01-25T11:06:10.969Z,86.93
2023-01-25T11:08:38.650Z,60.70
2023-01-25T11:11:14.285Z,70.63
2023-01-25T11:13:41.327Z,61.85
2023-01-25T11:16:22.610Z,75.43
2023-01-25T11:18:50.555Z,61.47
2023-01-25T11:21:23.237Z,70.88
2023-01-25T11:24:07.169Z,67.53
2023-01-25T11:26:36.503Z,67.43
2023-01-25T11:29:12.060Z,67.82
2023-01-25T11:31:41.922Z,74.13
2023-01-25T11:34:10.066Z,60.60
2023-01-25T11:36:43.926Z,68.22
2023-01-25T11:39:28.803Z,64.90
2023-01-25T11:42:02.749Z,66.70
2023-01-25T11:44:29.090Z,73.47
2023-01-25T11:47:11.399Z,64.28
2023-01-25T11:49:37.895Z,57.63
2023-01-25T11:52:04.261Z,68.93
2023-01-25T11:54:33.699Z,63.40
2023-01-25T11:57:10.899Z,73.55
2023-01-25T11:59:40.043Z,63.22
2023-01-25T12:02:08.843Z,62.42
2023-01-25T12:04:54.153Z,57.97
2023-01-25T12:07:38.805Z,63.78
2023-01-25T12:10:08.196Z,56.30
2023-01-25T12:12:38.080Z,63.33
2023-01-25T12:15:24.752Z,61.67
2023-01-25T12:18:29.546Z,62.22
2023-01-25T12:21:26.379Z,65.38
2023-01-25T12:24:00.151Z,65.97
2023-01-25T12:26:30.378Z,60.40
2023-01-25T12:29:04.386Z,62.47
2023-01-25T12:31:49.604Z,58.42
2023-01-25T12:34:30.591Z,77.18
2023-01-25T12:36:59.243Z,71.65
2023-01-25T12:39:30.255Z,67.03
2023-01-25T12:42:12.088Z,56.42
2023-01-25T12:44:47.762Z,73.63
2023-01-25T12:47:17.602Z,66.78
2023-01-25T12:49:47.131Z,68.88
2023-01-25T12:52:46.026Z,70.40
2023-01-25T12:55:13.772Z,58.28
2023-01-25T12:57:58.937Z,77.97
2023-01-25T13:00:28.388Z,65.63
2023-01-25T13:03:13.075Z,73.00
2023-01-25T13:05:45.557Z,67.53
2023-01-25T13:08:31.698Z,67.07
2023-01-25T13:11:22.071Z,75.57
2023-01-25T13:13:48.542Z,59.22
2023-01-25T13:16:30.371Z,71.40
2023-01-25T13:18:57.547Z,75.20
2023-01-25T13:21:44.913Z,70.18
2023-01-25T13:24:16.472Z,72.85
2023-01-25T13:26:46.357Z,70.40
2023-01-25T13:29:31.606Z,71.88
2023-01-25T13:31:59.400Z,71.13
2023-01-25T13:34:35.645Z,65.57
2023-01-25T13:37:02.922Z,62.72
2023-01-25T13:39:31.565Z,60.78
2023-01-25T13:41:57.932Z,62.15
2023-01-25T13:44:28.424Z,67.43
2023-01-25T13:46:56.232Z,63.20
2023-01-25T13:49:24.540Z,64.70
2023-01-25T13:51:51.040Z,71.53
2023-01-25T13:54:17.522Z,66.30
2023-01-25T13:56:44.355Z,69.35
2023-01-25T13:59:23.858Z,68.07
2023-01-25T14:01:50.686Z,59.40
2023-01-25T14:04:17.983Z,68.07
2023-01-25T14:06:45.079Z,56.30
2023-01-25T14:09:20.705Z,56.78
2023-01-25T14:11:54.307Z,56.95
2023-01-25T14:14:21.228Z,59.10
2023-01-25T14:17:00.403Z,59.88
2023-01-25T14:19:29.727Z,62.53
2023-01-25T14:22:11.146Z,56.67
2023-01-25T14:24:37.855Z,59.75
2023-01-25T14:27:05.079Z,55.38
2023-01-25T14:29:33.504Z,67.05
2023-01-25T14:32:00.252Z,56.58
2023-01-25T14:34:26.743Z,61.35
2023-01-25T14:37:11.680Z,60.10
2023-01-25T14:39:38.320Z,66.28
2023-01-25T14:42:04.848Z,64.25
2023-01-25T14:44:32.863Z,56.40
2023-01-25T14:47:18.075Z,58.38
2023-01-25T14:49:44.516Z,62.47
2023-01-25T14:52:15.691Z,61.92
2023-01-25T14:54:51.763Z,66.72
2023-01-25T14:57:38.461Z,64.18
2023-01-25T15:00:25.490Z,67.93
2023-01-25T15:02:56.573Z,65.68
2023-01-25T15:05:24.739Z,63.58
2023-01-25T15:07:58.252Z,69.53
2023-01-25T15:10:29.144Z,69.18
2023-01-25T15:13:04.150Z,67.07
2023-01-25T15:15:35.090Z,65.80
2023-01-25T15:18:02.288Z,70.85
2023-01-25T15:20:41.551Z,75.68
2023-01-25T15:23:24.645Z,81.75
2023-01-25T15:25:51.673Z,80.82
2023-01-25T15:28:18.032Z,87.07
2023-01-25T15:30:44.555Z,75.45
2023-01-25T15:33:17.342Z,78.72
2023-01-25T15:35:44.836Z,76.68
2023-01-25T15:38:12.561Z,75.15
2023-01-25T15:40:38.930Z,76.97
2023-01-25T15:43:05.324Z,84.32
2023-01-25T15:45:32.185Z,76.25
2023-01-25T15:47:59.153Z,73.57
2023-01-25T15:50:25.612Z,82.53
2023-01-25T15:52:52.131Z,88.45
2023-01-25T15:55:18.600Z,82.50
2023-01-25T15:57:47.345Z,87.22
2023-01-25T16:00:19.030Z,89.38
2023-01-25T16:02:45.551Z,84.32
2023-01-25T16:05:12.265Z,103.70
2023-01-25T16:07:39.778Z,82.45
2023-01-25T16:10:06.793Z,93.85
2023-01-25T16:12:34.466Z,88.22
2023-01-25T16:15:00.894Z,85.90
2023-01-25T16:17:30.423Z,82.35
2023-01-25T16:19:56.842Z,84.57
2023-01-25T16:22:23.176Z,81.03
2023-01-25T16:24:49.629Z,89.20
2023-01-25T16:27:20.317Z,93.97
2023-01-25T16:29:47.296Z,98.22
2023-01-25T16:32:13.697Z,102.75
2023-01-25T16:34:40.119Z,105.03
2023-01-25T16:37:06.491Z,101.13
2023-01-25T16:39:32.970Z,101.30
2023-01-25T16:41:59.449Z,98.10
2023-01-25T16:44:25.911Z,118.43
2023-01-25T16:46:52.435Z,106.90
2023-01-25T16:49:20.157Z,99.03
2023-01-25T16:51:47.727Z,98.10
2023-01-25T16:54:14.180Z,103.55
2023-01-25T16:56:40.695Z,111.90
2023-01-25T16:59:09.232Z,102.70
2023-01-25T17:01:38.221Z,107.75
2023-01-25T17:04:04.714Z,109.72
2023-01-25T17:06:32.448Z,106.75
2023-01-25T17:09:02.228Z,104.57
2023-01-25T17:11:31.155Z,121.43
2023-01-25T17:13:58.907Z,117.43
2023-01-25T17:16:26.810Z,105.28
2023-01-25T17:18:54.728Z,108.32
2023-01-25T17:21:21.265Z,111.78
2023-01-25T17:23:47.679Z,121.53
2023-01-25T17:26:15.048Z,116.38
2023-01-25T17:28:41.845Z,123.13
2023-01-25T17:31:22.249Z,123.38
2023-01-25T17:33:49.355Z,113.68
2023-01-25T17:36:16.189Z,136.82
2023-01-25T17:38:42.988Z,135.00
2023-01-25T17:41:11.118Z,112.50
2023-01-25T17:43:37.697Z,132.65
2023-01-25T17:46:14.369Z,138.95
2023-01-25T17:48:41.158Z,133.43
2023-01-25T17:51:07.637Z,114.10
2023-01-25T17:53:34.096Z,143.35
2023-01-25T17:56:04.514Z,138.52
2023-01-25T17:58:31.535Z,146.95
2023-01-25T18:01:12.558Z,152.77
2023-01-25T18:03:39.961Z,154.55
2023-01-25T18:06:09.571Z,161.50
2023-01-25T18:08:40.607Z,147.68
2023-01-25T18:11:11.265Z,146.68
2023-01-25T18:17:02.123Z,147.13
2023-01-25T18:19:31.329Z,155.18
2023-01-25T18:21:57.712Z,147.80
2023-01-25T18:24:34.368Z,133.57
2023-01-25T18:27:04.535Z,145.63
2023-01-25T18:29:35.039Z,139.38
2023-01-25T18:32:01.809Z,138.88
2023-01-25T18:34:28.283Z,147.82
2023-01-25T18:36:58.315Z,139.57
2023-01-25T18:39:25.353Z,135.20
2023-01-25T18:41:52.067Z,151.93
2023-01-25T18:44:19.857Z,134.32
2023-01-25T18:46:47.941Z,142.25
2023-01-25T18:49:14.778Z,161.63
2023-01-25T18:51:59.497Z,147.65
2023-01-25T18:54:27.899Z,141.98
2023-01-25T18:56:54.972Z,141.32
2023-01-25T18:59:21.483Z,138.02
2023-01-25T19:01:47.950Z,153.63
2023-01-25T19:04:14.476Z,152.32
2023-01-25T19:06:41.058Z,135.85
2023-01-25T19:09:07.518Z,149.77
2023-01-25T19:11:33.914Z,157.55
2023-01-25T19:14:00.327Z,152.65
2023-01-25T19:16:27.047Z,153.52
2023-01-25T19:18:54.531Z,148.13
2023-01-25T19:21:25.348Z,184.52
2023-01-25T19:23:52.483Z,158.38
2023-01-25T19:26:20.317Z,151.27
2023-01-25T19:28:47.188Z,160.95
2023-01-25T19:31:17.703Z,171.70
2023-01-25T19:33:44.529Z,171.75
2023-01-25T19:36:15.434Z,186.00
2023-01-25T19:38:42.539Z,155.77
2023-01-25T19:41:13.152Z,159.93
2023-01-25T19:43:41.547Z,141.98
2023-01-25T19:46:10.958Z,157.10
2023-01-25T19:48:37.617Z,165.20
2023-01-25T19:51:23.412Z,166.38
2023-01-25T19:53:53.901Z,153.10
2023-01-25T19:56:20.457Z,157.70
2023-01-25T19:58:47.870Z,134.07
2023-01-25T20:01:15.514Z,141.88
2023-01-25T20:03:42.470Z,154.43
2023-01-25T20:06:09.399Z,116.75
2023-01-25T20:08:36.973Z,147.25
2023-01-25T20:11:04.824Z,159.40
2023-01-25T20:13:31.843Z,167.77
2023-01-25T20:15:58.311Z,156.65
2023-01-25T20:18:24.752Z,167.20
2023-01-25T20:20:58.347Z,154.68
2023-01-25T20:23:25.054Z,146.55
2023-01-25T20:25:58.715Z,170.20
2023-01-25T20:28:25.396Z,164.35
2023-01-25T20:30:51.891Z,157.48
2023-01-25T20:33:19.040Z,156.05
2023-01-25T20:35:45.852Z,166.00
2023-01-25T20:38:12.609Z,166.07
2023-01-25T20:40:39.396Z,167.02
2023-01-25T20:43:06.114Z,201.05
2023-01-25T20:45:32.520Z,171.02
2023-01-25T20:47:58.949Z,176.00
2023-01-25T20:50:25.383Z,161.20
2023-01-25T20:52:52.479Z,157.98
2023-01-25T20:55:18.880Z,175.00
2023-01-25T20:57:45.231Z,143.00
2023-01-25T21:00:11.828Z,170.95
2023-01-25T21:02:38.854Z,197.80
2023-01-25T21:05:05.827Z,163.55
2023-01-25T21:07:32.378Z,196.10
2023-01-25T21:09:58.797Z,173.57
2023-01-25T21:12:25.202Z,175.38
2023-01-25T21:14:51.928Z,164.88
2023-01-25T21:17:18.301Z,185.13
2023-01-25T21:19:44.671Z,176.48
2023-01-25T21:22:11.051Z,168.40
2023-01-25T21:24:37.436Z,130.13
2023-01-25T21:27:03.839Z,156.77
2023-01-25T21:29:30.214Z,149.85
2023-01-25T21:31:56.642Z,160.50
2023-01-25T21:34:23.108Z,153.63
2023-01-25T21:36:49.942Z,165.30
2023-01-25T21:39:16.413Z,150.88
2023-01-25T21:41:42.787Z,124.22
2023-01-25T21:44:28.210Z,138.88
2023-01-25T21:50:00.044Z,134.02
2023-01-25T21:52:26.426Z,140.65
2023-01-25T21:54:52.839Z,127.30
2023-01-25T21:57:19.468Z,136.23
2023-01-25T21:59:45.903Z,134.70
2023-01-25T22:02:14.027Z,121.25
2023-01-25T22:04:40.680Z,124.60
2023-01-25T22:07:08.537Z,134.73
2023-01-25T22:09:35.345Z,120.68
2023-01-25T22:12:02.024Z,123.13
2023-01-25T22:14:28.802Z,124.35
2023-01-25T22:16:56.070Z,112.47
2023-01-25T22:19:22.483Z,109.22
2023-01-25T22:21:48.823Z,107.85
2023-01-25T22:24:15.839Z,114.55
2023-01-25T22:26:45.280Z,104.25
2023-01-25T22:29:12.281Z,94.43
2023-01-25T22:31:38.851Z,109.57
2023-01-25T22:34:05.280Z,91.40
2023-01-25T22:36:31.677Z,108.60
2023-01-25T22:39:00.127Z,90.82
2023-01-25T22:41:28.166Z,91.85
2023-01-25T22:43:54.796Z,92.93
2023-01-25T22:46:22.256Z,84.97
2023-01-25T22:48:49.056Z,84.82
2023-01-25T22:51:28.697Z,96.43
2023-01-25T22:53:55.715Z,93.50
2023-01-25T22:56:23.339Z,96.70
2023-01-25T22:58:50.177Z,83.70
2023-01-25T23:01:27.442Z,96.47
2023-01-25T23:03:54.005Z,80.05
2023-01-25T23:06:21.809Z,91.60
2023-01-25T23:08:48.419Z,79.38
2023-01-25T23:11:16.252Z,83.28
2023-01-25T23:14:03.240Z,86.05
2023-01-25T23:16:30.132Z,84.03
2023-01-25T23:18:56.738Z,82.20
2023-01-25T23:21:24.338Z,96.20
2023-01-25T23:23:51.371Z,83.38
2023-01-25T23:26:17.836Z,88.00
2023-01-25T23:28:50.880Z,89.45
2023-01-25T23:31:17.877Z,95.38
2023-01-25T23:33:45.525Z,74.22
2023-01-25T23:36:13.515Z,73.97
2023-01-25T23:38:40.043Z,76.03
2023-01-25T23:41:06.637Z,80.15
2023-01-25T23:43:33.109Z,78.88
2023-01-25T23:45:59.580Z,79.40
2023-01-25T23:48:26.149Z,77.18
2023-01-25T23:50:52.960Z,92.80
2023-01-25T23:53:19.755Z,87.03
2023-01-25T23:55:56.742Z,95.88
2023-01-25T23:58:24.159Z,90.18
